sensor_id;sensor_type;location;lat;lon;timestamp;temperature;humidity
38464;DHT22;24243;51.956;5.902;2023-07-13T00:01:14;24.70;48.10
38464;DHT22;24243;51.956;5.902;2023-07-13T00:03:40;24.70;48.10
38464;DHT22;24243;51.956;5.902;2023-07-13T00:06:07;24.70;48.00
38464;DHT22;24243;51.956;5.902;2023-07-13T00:08:32;24.70;48.00
38464;DHT22;24243;51.956;5.902;2023-07-13T00:10:58;24.70;48.00
38464;DHT22;24243;51.956;5.902;2023-07-13T00:13:24;24.70;48.00
38464;DHT22;24243;51.956;5.902;2023-07-13T00:15:50;24.70;48.00
38464;DHT22;24243;51.956;5.902;2023-07-13T00:18:15;24.70;47.90
38464;DHT22;24243;51.956;5.902;2023-07-13T00:20:41;24.70;47.90
38464;DHT22;24243;51.956;5.902;2023-07-13T00:23:07;24.70;47.90
38464;DHT22;24243;51.956;5.902;2023-07-13T00:25:33;24.70;48.50
38464;DHT22;24243;51.956;5.902;2023-07-13T00:27:58;24.80;47.90
38464;DHT22;24243;51.956;5.902;2023-07-13T00:30:24;24.80;47.90
38464;DHT22;24243;51.956;5.902;2023-07-13T00:32:51;24.80;47.90
38464;DHT22;24243;51.956;5.902;2023-07-13T00:35:16;24.80;47.90
38464;DHT22;24243;51.956;5.902;2023-07-13T00:37:42;24.90;47.90
38464;DHT22;24243;51.956;5.902;2023-07-13T00:40:09;24.90;47.90
38464;DHT22;24243;51.956;5.902;2023-07-13T00:42:36;24.90;47.90
38464;DHT22;24243;51.956;5.902;2023-07-13T00:45:02;24.90;47.90
38464;DHT22;24243;51.956;5.902;2023-07-13T00:47:28;24.90;47.90
38464;DHT22;24243;51.956;5.902;2023-07-13T00:49:54;24.90;47.90
38464;DHT22;24243;51.956;5.902;2023-07-13T00:52:19;24.90;47.80
38464;DHT22;24243;51.956;5.902;2023-07-13T00:54:45;24.90;47.90
38464;DHT22;24243;51.956;5.902;2023-07-13T00:57:12;24.90;47.90
38464;DHT22;24243;51.956;5.902;2023-07-13T00:59:40;25.00;47.90
38464;DHT22;24243;51.956;5.902;2023-07-13T01:02:06;25.00;47.90
38464;DHT22;24243;51.956;5.902;2023-07-13T01:04:33;24.90;47.90
38464;DHT22;24243;51.956;5.902;2023-07-13T01:06:58;24.90;47.90
38464;DHT22;24243;51.956;5.902;2023-07-13T01:09:26;24.90;47.90
38464;DHT22;24243;51.956;5.902;2023-07-13T01:11:51;25.00;47.90
38464;DHT22;24243;51.956;5.902;2023-07-13T01:14:17;25.00;47.90
38464;DHT22;24243;51.956;5.902;2023-07-13T01:16:44;25.00;47.90
38464;DHT22;24243;51.956;5.902;2023-07-13T01:19:18;25.00;47.90
38464;DHT22;24243;51.956;5.902;2023-07-13T01:21:49;25.00;47.90
38464;DHT22;24243;51.956;5.902;2023-07-13T01:24:15;25.00;47.90
38464;DHT22;24243;51.956;5.902;2023-07-13T01:26:40;25.00;48.00
38464;DHT22;24243;51.956;5.902;2023-07-13T01:29:06;25.00;48.00
38464;DHT22;24243;51.956;5.902;2023-07-13T01:31:33;25.00;48.00
38464;DHT22;24243;51.956;5.902;2023-07-13T01:33:58;25.00;48.00
38464;DHT22;24243;51.956;5.902;2023-07-13T01:36:24;25.00;48.00
38464;DHT22;24243;51.956;5.902;2023-07-13T01:38:49;25.00;48.00
38464;DHT22;24243;51.956;5.902;2023-07-13T01:41:15;25.00;48.00
38464;DHT22;24243;51.956;5.902;2023-07-13T01:43:41;25.00;48.00
38464;DHT22;24243;51.956;5.902;2023-07-13T01:46:06;25.00;48.00
38464;DHT22;24243;51.956;5.902;2023-07-13T01:48:32;25.00;48.00
38464;DHT22;24243;51.956;5.902;2023-07-13T01:50:58;25.00;48.00
38464;DHT22;24243;51.956;5.902;2023-07-13T01:53:23;25.00;48.00
38464;DHT22;24243;51.956;5.902;2023-07-13T01:55:49;25.00;48.00
38464;DHT22;24243;51.956;5.902;2023-07-13T01:58:14;25.00;48.00
38464;DHT22;24243;51.956;5.902;2023-07-13T02:00:40;25.00;48.00
38464;DHT22;24243;51.956;5.902;2023-07-13T02:03:05;25.00;48.00
38464;DHT22;24243;51.956;5.902;2023-07-13T02:05:31;25.00;48.00
38464;DHT22;24243;51.956;5.902;2023-07-13T02:07:56;25.00;48.00
38464;DHT22;24243;51.956;5.902;2023-07-13T02:10:22;25.00;48.00
38464;DHT22;24243;51.956;5.902;2023-07-13T02:12:48;25.00;48.00
38464;DHT22;24243;51.956;5.902;2023-07-13T02:15:15;25.00;48.10
38464;DHT22;24243;51.956;5.902;2023-07-13T02:17:41;25.00;48.10
38464;DHT22;24243;51.956;5.902;2023-07-13T02:20:07;25.00;48.70
38464;DHT22;24243;51.956;5.902;2023-07-13T02:22:33;25.00;48.10
38464;DHT22;24243;51.956;5.902;2023-07-13T02:24:58;25.00;48.20
38464;DHT22;24243;51.956;5.902;2023-07-13T02:27:24;25.00;48.10
38464;DHT22;24243;51.956;5.902;2023-07-13T02:29:50;25.00;48.10
38464;DHT22;24243;51.956;5.902;2023-07-13T02:32:17;25.00;48.10
38464;DHT22;24243;51.956;5.902;2023-07-13T02:34:42;25.00;48.10
38464;DHT22;24243;51.956;5.902;2023-07-13T02:37:08;25.00;48.20
38464;DHT22;24243;51.956;5.902;2023-07-13T02:39:33;25.00;48.20
38464;DHT22;24243;51.956;5.902;2023-07-13T02:41:59;25.00;48.20
38464;DHT22;24243;51.956;5.902;2023-07-13T02:44:26;25.00;48.20
38464;DHT22;24243;51.956;5.902;2023-07-13T02:46:51;25.00;48.20
38464;DHT22;24243;51.956;5.902;2023-07-13T02:49:17;25.00;48.20
38464;DHT22;24243;51.956;5.902;2023-07-13T02:51:43;25.00;48.20
38464;DHT22;24243;51.956;5.902;2023-07-13T02:54:09;25.00;48.20
38464;DHT22;24243;51.956;5.902;2023-07-13T02:56:34;24.90;48.10
38464;DHT22;24243;51.956;5.902;2023-07-13T02:59:00;25.00;48.20
38464;DHT22;24243;51.956;5.902;2023-07-13T03:01:26;25.00;48.20
38464;DHT22;24243;51.956;5.902;2023-07-13T03:03:52;25.00;48.20
38464;DHT22;24243;51.956;5.902;2023-07-13T03:06:18;25.00;48.20
38464;DHT22;24243;51.956;5.902;2023-07-13T03:08:43;24.90;48.10
38464;DHT22;24243;51.956;5.902;2023-07-13T03:11:13;25.00;48.20
38464;DHT22;24243;51.956;5.902;2023-07-13T03:13:39;25.00;48.20
38464;DHT22;24243;51.956;5.902;2023-07-13T03:16:05;25.00;48.20
38464;DHT22;24243;51.956;5.902;2023-07-13T03:18:31;25.00;48.20
38464;DHT22;24243;51.956;5.902;2023-07-13T03:20:56;25.00;48.20
38464;DHT22;24243;51.956;5.902;2023-07-13T03:23:22;24.90;48.20
38464;DHT22;24243;51.956;5.902;2023-07-13T03:25:48;25.00;48.20
38464;DHT22;24243;51.956;5.902;2023-07-13T03:28:14;25.00;48.20
38464;DHT22;24243;51.956;5.902;2023-07-13T03:30:40;24.90;48.10
38464;DHT22;24243;51.956;5.902;2023-07-13T03:33:06;24.90;48.10
38464;DHT22;24243;51.956;5.902;2023-07-13T03:35:32;25.00;48.20
38464;DHT22;24243;51.956;5.902;2023-07-13T03:37:58;25.00;48.20
38464;DHT22;24243;51.956;5.902;2023-07-13T03:40:24;25.00;48.20
38464;DHT22;24243;51.956;5.902;2023-07-13T03:42:51;24.90;48.10
38464;DHT22;24243;51.956;5.902;2023-07-13T03:45:17;24.90;48.20
38464;DHT22;24243;51.956;5.902;2023-07-13T03:47:43;25.00;48.20
38464;DHT22;24243;51.956;5.902;2023-07-13T03:50:08;24.90;48.10
38464;DHT22;24243;51.956;5.902;2023-07-13T03:52:34;25.00;48.20
38464;DHT22;24243;51.956;5.902;2023-07-13T03:55:00;25.00;48.20
38464;DHT22;24243;51.956;5.902;2023-07-13T03:57:25;24.90;48.20
38464;DHT22;24243;51.956;5.902;2023-07-13T03:59:51;24.90;48.10
38464;DHT22;24243;51.956;5.902;2023-07-13T04:02:16;25.00;48.20
38464;DHT22;24243;51.956;5.902;2023-07-13T04:04:43;25.00;48.20
38464;DHT22;24243;51.956;5.902;2023-07-13T04:07:08;24.90;48.20
38464;DHT22;24243;51.956;5.902;2023-07-13T04:09:34;25.00;48.20
38464;DHT22;24243;51.956;5.902;2023-07-13T04:12:00;24.90;48.20
38464;DHT22;24243;51.956;5.902;2023-07-13T04:14:26;25.00;48.20
38464;DHT22;24243;51.956;5.902;2023-07-13T04:16:51;24.90;48.10
38464;DHT22;24243;51.956;5.902;2023-07-13T04:19:17;25.00;48.20
38464;DHT22;24243;51.956;5.902;2023-07-13T04:21:43;24.90;48.20
38464;DHT22;24243;51.956;5.902;2023-07-13T04:24:09;25.00;48.20
38464;DHT22;24243;51.956;5.902;2023-07-13T04:26:34;24.90;48.20
38464;DHT22;24243;51.956;5.902;2023-07-13T04:29:04;24.90;48.20
38464;DHT22;24243;51.956;5.902;2023-07-13T04:31:29;25.00;48.20
38464;DHT22;24243;51.956;5.902;2023-07-13T04:33:55;24.90;48.20
38464;DHT22;24243;51.956;5.902;2023-07-13T04:36:21;25.00;48.20
38464;DHT22;24243;51.956;5.902;2023-07-13T04:38:47;24.90;48.20
38464;DHT22;24243;51.956;5.902;2023-07-13T04:41:12;25.00;48.20
38464;DHT22;24243;51.956;5.902;2023-07-13T04:43:38;25.00;48.80
38464;DHT22;24243;51.956;5.902;2023-07-13T04:46:05;25.00;48.20
38464;DHT22;24243;51.956;5.902;2023-07-13T04:48:31;25.00;48.20
38464;DHT22;24243;51.956;5.902;2023-07-13T04:50:57;24.90;48.20
38464;DHT22;24243;51.956;5.902;2023-07-13T04:53:23;25.00;48.20
38464;DHT22;24243;51.956;5.902;2023-07-13T04:55:49;25.00;48.20
38464;DHT22;24243;51.956;5.902;2023-07-13T04:58:15;24.90;48.20
38464;DHT22;24243;51.956;5.902;2023-07-13T05:00:40;25.00;48.20
38464;DHT22;24243;51.956;5.902;2023-07-13T05:03:06;25.00;48.20
38464;DHT22;24243;51.956;5.902;2023-07-13T05:05:32;25.00;48.20
38464;DHT22;24243;51.956;5.902;2023-07-13T05:07:58;25.00;48.20
38464;DHT22;24243;51.956;5.902;2023-07-13T05:10:23;25.00;48.20
38464;DHT22;24243;51.956;5.902;2023-07-13T05:12:49;25.00;48.20
38464;DHT22;24243;51.956;5.902;2023-07-13T05:15:15;25.00;48.20
38464;DHT22;24243;51.956;5.902;2023-07-13T05:17:41;25.00;48.20
38464;DHT22;24243;51.956;5.902;2023-07-13T05:20:08;25.00;48.20
38464;DHT22;24243;51.956;5.902;2023-07-13T05:22:34;25.00;48.20
38464;DHT22;24243;51.956;5.902;2023-07-13T05:25:06;25.00;48.30
38464;DHT22;24243;51.956;5.902;2023-07-13T05:27:32;25.00;48.20
38464;DHT22;24243;51.956;5.902;2023-07-13T05:29:58;25.00;48.30
38464;DHT22;24243;51.956;5.902;2023-07-13T05:32:23;25.00;48.30
38464;DHT22;24243;51.956;5.902;2023-07-13T05:34:49;25.00;48.30
38464;DHT22;24243;51.956;5.902;2023-07-13T05:37:14;25.00;48.30
38464;DHT22;24243;51.956;5.902;2023-07-13T05:39:40;25.00;48.30
38464;DHT22;24243;51.956;5.902;2023-07-13T05:42:06;25.00;48.20
38464;DHT22;24243;51.956;5.902;2023-07-13T05:44:31;25.00;48.30
38464;DHT22;24243;51.956;5.902;2023-07-13T05:46:57;25.00;48.30
38464;DHT22;24243;51.956;5.902;2023-07-13T05:49:23;25.00;48.30
38464;DHT22;24243;51.956;5.902;2023-07-13T05:51:48;25.00;48.30
38464;DHT22;24243;51.956;5.902;2023-07-13T05:54:14;25.00;48.30
38464;DHT22;24243;51.956;5.902;2023-07-13T05:56:40;25.00;48.30
38464;DHT22;24243;51.956;5.902;2023-07-13T05:59:06;25.00;48.30
38464;DHT22;24243;51.956;5.902;2023-07-13T06:01:31;25.00;48.20
38464;DHT22;24243;51.956;5.902;2023-07-13T06:03:57;25.00;48.20
38464;DHT22;24243;51.956;5.902;2023-07-13T06:06:23;25.10;48.30
38464;DHT22;24243;51.956;5.902;2023-07-13T06:08:48;25.10;48.30
38464;DHT22;24243;51.956;5.902;2023-07-13T06:11:15;25.10;48.40
38464;DHT22;24243;51.956;5.902;2023-07-13T06:13:41;25.10;48.50
38464;DHT22;24243;51.956;5.902;2023-07-13T06:16:06;25.00;48.40
38464;DHT22;24243;51.956;5.902;2023-07-13T06:18:34;25.00;48.50
38464;DHT22;24243;51.956;5.902;2023-07-13T06:21:00;25.00;48.50
38464;DHT22;24243;51.956;5.902;2023-07-13T06:23:25;25.00;48.60
38464;DHT22;24243;51.956;5.902;2023-07-13T06:25:51;25.00;48.60
38464;DHT22;24243;51.956;5.902;2023-07-13T06:28:17;25.00;48.70
38464;DHT22;24243;51.956;5.902;2023-07-13T06:30:42;25.00;48.70
38464;DHT22;24243;51.956;5.902;2023-07-13T06:33:08;25.00;48.70
38464;DHT22;24243;51.956;5.902;2023-07-13T06:35:34;25.00;48.70
38464;DHT22;24243;51.956;5.902;2023-07-13T06:37:59;25.00;48.70
38464;DHT22;24243;51.956;5.902;2023-07-13T06:40:25;25.00;48.70
38464;DHT22;24243;51.956;5.902;2023-07-13T06:42:51;25.00;48.80
38464;DHT22;24243;51.956;5.902;2023-07-13T06:45:16;25.00;48.80
38464;DHT22;24243;51.956;5.902;2023-07-13T06:47:42;25.00;48.90
38464;DHT22;24243;51.956;5.902;2023-07-13T06:50:08;24.90;49.00
38464;DHT22;24243;51.956;5.902;2023-07-13T06:52:33;24.90;49.10
38464;DHT22;24243;51.956;5.902;2023-07-13T06:54:59;24.90;49.20
38464;DHT22;24243;51.956;5.902;2023-07-13T06:57:25;24.80;49.30
38464;DHT22;24243;51.956;5.902;2023-07-13T06:59:51;24.80;49.30
38464;DHT22;24243;51.956;5.902;2023-07-13T07:02:17;24.70;49.40
38464;DHT22;24243;51.956;5.902;2023-07-13T07:04:43;24.80;49.40
38464;DHT22;24243;51.956;5.902;2023-07-13T07:07:08;24.80;49.40
38464;DHT22;24243;51.956;5.902;2023-07-13T07:09:34;24.80;49.40
38464;DHT22;24243;51.956;5.902;2023-07-13T07:11:59;24.80;49.30
38464;DHT22;24243;51.956;5.902;2023-07-13T07:14:25;24.80;49.30
38464;DHT22;24243;51.956;5.902;2023-07-13T07:16:50;24.90;49.30
38464;DHT22;24243;51.956;5.902;2023-07-13T07:19:16;24.90;49.30
38464;DHT22;24243;51.956;5.902;2023-07-13T07:21:42;24.90;49.30
38464;DHT22;24243;51.956;5.902;2023-07-13T07:24:07;24.90;49.20
38464;DHT22;24243;51.956;5.902;2023-07-13T07:26:34;24.90;49.20
38464;DHT22;24243;51.956;5.902;2023-07-13T07:28:59;25.00;49.30
38464;DHT22;24243;51.956;5.902;2023-07-13T07:31:25;25.00;49.20
38464;DHT22;24243;51.956;5.902;2023-07-13T07:33:51;25.00;49.20
38464;DHT22;24243;51.956;5.902;2023-07-13T07:36:16;25.00;49.20
38464;DHT22;24243;51.956;5.902;2023-07-13T07:38:43;25.00;49.20
38464;DHT22;24243;51.956;5.902;2023-07-13T07:41:09;25.00;49.20
38464;DHT22;24243;51.956;5.902;2023-07-13T07:43:34;25.10;49.30
38464;DHT22;24243;51.956;5.902;2023-07-13T07:46:00;25.00;49.20
38464;DHT22;24243;51.956;5.902;2023-07-13T07:48:26;25.10;49.30
38464;DHT22;24243;51.956;5.902;2023-07-13T07:50:51;25.10;49.30
38464;DHT22;24243;51.956;5.902;2023-07-13T07:53:17;25.20;49.40
38464;DHT22;24243;51.956;5.902;2023-07-13T07:55:43;25.20;49.30
38464;DHT22;24243;51.956;5.902;2023-07-13T07:58:08;25.20;49.30
38464;DHT22;24243;51.956;5.902;2023-07-13T08:00:34;25.20;49.30
38464;DHT22;24243;51.956;5.902;2023-07-13T08:03:00;25.20;49.30
38464;DHT22;24243;51.956;5.902;2023-07-13T08:05:26;25.30;49.40
38464;DHT22;24243;51.956;5.902;2023-07-13T08:07:51;25.30;49.40
38464;DHT22;24243;51.956;5.902;2023-07-13T08:10:17;25.30;49.30
38464;DHT22;24243;51.956;5.902;2023-07-13T08:12:43;25.30;49.30
38464;DHT22;24243;51.956;5.902;2023-07-13T08:15:10;25.30;49.30
38464;DHT22;24243;51.956;5.902;2023-07-13T08:17:35;25.40;49.40
38464;DHT22;24243;51.956;5.902;2023-07-13T08:20:01;25.40;49.40
38464;DHT22;24243;51.956;5.902;2023-07-13T08:22:27;25.40;49.40
38464;DHT22;24243;51.956;5.902;2023-07-13T08:24:53;25.40;49.40
38464;DHT22;24243;51.956;5.902;2023-07-13T08:27:22;25.40;49.40
38464;DHT22;24243;51.956;5.902;2023-07-13T08:29:49;25.40;49.50
38464;DHT22;24243;51.956;5.902;2023-07-13T08:32:14;25.40;49.50
38464;DHT22;24243;51.956;5.902;2023-07-13T08:34:40;25.40;49.50
38464;DHT22;24243;51.956;5.902;2023-07-13T08:37:06;25.50;49.50
38464;DHT22;24243;51.956;5.902;2023-07-13T08:39:32;25.50;49.50
38464;DHT22;24243;51.956;5.902;2023-07-13T08:42:12;25.50;49.50
38464;DHT22;24243;51.956;5.902;2023-07-13T08:44:44;25.50;49.50
38464;DHT22;24243;51.956;5.902;2023-07-13T08:47:12;25.60;49.60
38464;DHT22;24243;51.956;5.902;2023-07-13T08:49:39;25.60;49.60
38464;DHT22;24243;51.956;5.902;2023-07-13T08:52:07;25.60;49.60
38464;DHT22;24243;51.956;5.902;2023-07-13T08:54:36;25.60;49.60
38464;DHT22;24243;51.956;5.902;2023-07-13T08:57:05;25.60;49.60
38464;DHT22;24243;51.956;5.902;2023-07-13T08:59:35;25.60;49.60
38464;DHT22;24243;51.956;5.902;2023-07-13T09:04:36;25.60;49.60
38464;DHT22;24243;51.956;5.902;2023-07-13T09:14:50;25.50;49.60
38464;DHT22;24243;51.956;5.902;2023-07-13T09:17:18;25.50;49.60
38464;DHT22;24243;51.956;5.902;2023-07-13T09:19:45;25.50;49.50
38464;DHT22;24243;51.956;5.902;2023-07-13T09:22:13;25.50;49.50
38464;DHT22;24243;51.956;5.902;2023-07-13T09:24:47;25.50;49.50
38464;DHT22;24243;51.956;5.902;2023-07-13T09:27:17;25.50;49.40
38464;DHT22;24243;51.956;5.902;2023-07-13T09:29:49;25.50;49.40
38464;DHT22;24243;51.956;5.902;2023-07-13T09:32:17;25.50;49.40
38464;DHT22;24243;51.956;5.902;2023-07-13T09:34:49;25.50;49.30
38464;DHT22;24243;51.956;5.902;2023-07-13T09:37:15;25.50;49.30
38464;DHT22;24243;51.956;5.902;2023-07-13T09:39:40;25.40;49.20
38464;DHT22;24243;51.956;5.902;2023-07-13T09:42:12;25.40;49.20
38464;DHT22;24243;51.956;5.902;2023-07-13T09:47:16;25.50;49.20
38464;DHT22;24243;51.956;5.902;2023-07-13T09:49:42;25.40;49.20
38464;DHT22;24243;51.956;5.902;2023-07-13T09:52:12;25.50;49.20
38464;DHT22;24243;51.956;5.902;2023-07-13T09:54:41;25.50;49.30
38464;DHT22;24243;51.956;5.902;2023-07-13T09:57:12;25.50;49.20
38464;DHT22;24243;51.956;5.902;2023-07-13T09:59:46;25.50;49.20
38464;DHT22;24243;51.956;5.902;2023-07-13T10:04:55;25.50;49.30
38464;DHT22;24243;51.956;5.902;2023-07-13T10:07:22;25.50;49.30
38464;DHT22;24243;51.956;5.902;2023-07-13T10:09:51;25.50;49.30
38464;DHT22;24243;51.956;5.902;2023-07-13T10:12:18;25.50;49.30
38464;DHT22;24243;51.956;5.902;2023-07-13T10:14:44;25.50;49.30
38464;DHT22;24243;51.956;5.902;2023-07-13T10:17:10;25.50;49.30
38464;DHT22;24243;51.956;5.902;2023-07-13T10:19:37;25.60;49.40
38464;DHT22;24243;51.956;5.902;2023-07-13T10:24:38;25.60;49.40
38464;DHT22;24243;51.956;5.902;2023-07-13T10:32:34;25.60;49.50
38464;DHT22;24243;51.956;5.902;2023-07-13T10:34:59;25.70;49.60
38464;DHT22;24243;51.956;5.902;2023-07-13T10:37:35;25.60;49.50
38464;DHT22;24243;51.956;5.902;2023-07-13T10:40:03;25.60;49.50
38464;DHT22;24243;51.956;5.902;2023-07-13T10:42:32;25.60;49.50
38464;DHT22;24243;51.956;5.902;2023-07-13T10:44:59;25.60;49.50
38464;DHT22;24243;51.956;5.902;2023-07-13T10:47:24;25.60;49.50
38464;DHT22;24243;51.956;5.902;2023-07-13T10:49:52;25.60;49.60
38464;DHT22;24243;51.956;5.902;2023-07-13T10:55:03;25.60;49.60
38464;DHT22;24243;51.956;5.902;2023-07-13T10:57:29;25.60;49.60
38464;DHT22;24243;51.956;5.902;2023-07-13T11:02:27;25.60;50.30
38464;DHT22;24243;51.956;5.902;2023-07-13T11:04:54;25.60;49.70
38464;DHT22;24243;51.956;5.902;2023-07-13T11:07:24;25.60;49.70
38464;DHT22;24243;51.956;5.902;2023-07-13T11:09:52;25.60;49.70
38464;DHT22;24243;51.956;5.902;2023-07-13T11:17:24;25.70;49.90
38464;DHT22;24243;51.956;5.902;2023-07-13T11:19:51;25.70;50.00
38464;DHT22;24243;51.956;5.902;2023-07-13T11:22:21;25.70;50.00
38464;DHT22;24243;51.956;5.902;2023-07-13T11:25:01;25.80;50.10
38464;DHT22;24243;51.956;5.902;2023-07-13T11:29:52;25.70;50.10
38464;DHT22;24243;51.956;5.902;2023-07-13T11:32:23;25.70;50.10
38464;DHT22;24243;51.956;5.902;2023-07-13T11:34:49;25.70;50.20
38464;DHT22;24243;51.956;5.902;2023-07-13T11:37:16;25.70;50.20
38464;DHT22;24243;51.956;5.902;2023-07-13T11:39:44;25.70;50.30
38464;DHT22;24243;51.956;5.902;2023-07-13T11:42:12;25.70;50.30
38464;DHT22;24243;51.956;5.902;2023-07-13T11:44:56;25.70;50.90
38464;DHT22;24243;51.956;5.902;2023-07-13T11:47:22;25.70;50.30
38464;DHT22;24243;51.956;5.902;2023-07-13T11:49:49;25.70;50.30
38464;DHT22;24243;51.956;5.902;2023-07-13T11:52:31;25.70;50.20
38464;DHT22;24243;51.956;5.902;2023-07-13T11:54:59;25.80;50.30
38464;DHT22;24243;51.956;5.902;2023-07-13T11:57:27;25.80;50.30
38464;DHT22;24243;51.956;5.902;2023-07-13T11:59:54;25.80;50.30
38464;DHT22;24243;51.956;5.902;2023-07-13T12:02:35;25.80;50.30
38464;DHT22;24243;51.956;5.902;2023-07-13T12:05:02;25.80;50.20
38464;DHT22;24243;51.956;5.902;2023-07-13T12:07:30;25.80;50.20
38464;DHT22;24243;51.956;5.902;2023-07-13T12:10:03;25.80;50.30
38464;DHT22;24243;51.956;5.902;2023-07-13T12:12:36;25.80;50.30
38464;DHT22;24243;51.956;5.902;2023-07-13T12:15:08;25.80;50.30
38464;DHT22;24243;51.956;5.902;2023-07-13T12:17:34;25.80;50.90
38464;DHT22;24243;51.956;5.902;2023-07-13T12:20:00;25.80;50.30
38464;DHT22;24243;51.956;5.902;2023-07-13T12:22:26;25.80;50.40
38464;DHT22;24243;51.956;5.902;2023-07-13T12:24:52;25.80;50.40
38464;DHT22;24243;51.956;5.902;2023-07-13T12:27:20;25.80;50.40
38464;DHT22;24243;51.956;5.902;2023-07-13T12:29:50;25.80;50.40
38464;DHT22;24243;51.956;5.902;2023-07-13T12:32:17;25.80;50.40
38464;DHT22;24243;51.956;5.902;2023-07-13T12:34:53;25.80;50.40
38464;DHT22;24243;51.956;5.902;2023-07-13T12:37:19;25.90;50.50
38464;DHT22;24243;51.956;5.902;2023-07-13T12:39:46;25.90;50.50
38464;DHT22;24243;51.956;5.902;2023-07-13T12:42:26;25.90;50.50
38464;DHT22;24243;51.956;5.902;2023-07-13T12:44:54;25.90;50.50
38464;DHT22;24243;51.956;5.902;2023-07-13T12:47:21;25.90;50.60
38464;DHT22;24243;51.956;5.902;2023-07-13T12:49:48;25.90;50.60
38464;DHT22;24243;51.956;5.902;2023-07-13T12:52:15;25.90;50.60
38464;DHT22;24243;51.956;5.902;2023-07-13T12:54:41;25.90;50.60
38464;DHT22;24243;51.956;5.902;2023-07-13T12:57:08;25.90;50.60
38464;DHT22;24243;51.956;5.902;2023-07-13T12:59:39;25.90;50.60
38464;DHT22;24243;51.956;5.902;2023-07-13T13:04:51;25.90;50.70
38464;DHT22;24243;51.956;5.902;2023-07-13T13:07:17;25.90;50.60
38464;DHT22;24243;51.956;5.902;2023-07-13T13:09:45;25.90;50.60
38464;DHT22;24243;51.956;5.902;2023-07-13T13:12:12;25.90;50.70
38464;DHT22;24243;51.956;5.902;2023-07-13T13:14:38;26.00;50.70
38464;DHT22;24243;51.956;5.902;2023-07-13T13:17:04;26.00;50.70
38464;DHT22;24243;51.956;5.902;2023-07-13T13:19:36;26.00;50.70
38464;DHT22;24243;51.956;5.902;2023-07-13T13:22:02;26.00;50.70
38464;DHT22;24243;51.956;5.902;2023-07-13T13:24:28;26.00;50.70
38464;DHT22;24243;51.956;5.902;2023-07-13T13:26:54;26.00;50.70
38464;DHT22;24243;51.956;5.902;2023-07-13T13:29:22;26.00;50.70
38464;DHT22;24243;51.956;5.902;2023-07-13T13:31:51;26.00;50.70
38464;DHT22;24243;51.956;5.902;2023-07-13T13:34:18;26.00;50.70
38464;DHT22;24243;51.956;5.902;2023-07-13T13:36:44;26.00;50.60
38464;DHT22;24243;51.956;5.902;2023-07-13T13:39:18;26.00;50.60
38464;DHT22;24243;51.956;5.902;2023-07-13T13:41:44;26.00;50.60
38464;DHT22;24243;51.956;5.902;2023-07-13T13:44:10;26.10;50.60
38464;DHT22;24243;51.956;5.902;2023-07-13T13:46:35;26.10;50.60
38464;DHT22;24243;51.956;5.902;2023-07-13T13:49:01;26.10;50.50
38464;DHT22;24243;51.956;5.902;2023-07-13T13:51:28;26.10;50.50
38464;DHT22;24243;51.956;5.902;2023-07-13T13:53:54;26.00;50.40
38464;DHT22;24243;51.956;5.902;2023-07-13T13:56:20;26.10;50.50
38464;DHT22;24243;51.956;5.902;2023-07-13T13:58:46;26.10;50.40
38464;DHT22;24243;51.956;5.902;2023-07-13T14:01:12;26.10;50.40
38464;DHT22;24243;51.956;5.902;2023-07-13T14:03:39;26.10;50.40
38464;DHT22;24243;51.956;5.902;2023-07-13T14:06:05;26.10;50.40
38464;DHT22;24243;51.956;5.902;2023-07-13T14:08:31;26.10;50.30
38464;DHT22;24243;51.956;5.902;2023-07-13T14:10:57;26.10;50.30
38464;DHT22;24243;51.956;5.902;2023-07-13T14:15:53;26.10;50.20
38464;DHT22;24243;51.956;5.902;2023-07-13T14:18:19;26.10;50.10
38464;DHT22;24243;51.956;5.902;2023-07-13T14:20:45;26.10;50.10
38464;DHT22;24243;51.956;5.902;2023-07-13T14:23:14;26.10;50.10
38464;DHT22;24243;51.956;5.902;2023-07-13T14:25:41;26.10;50.00
38464;DHT22;24243;51.956;5.902;2023-07-13T14:28:18;26.10;50.00
38464;DHT22;24243;51.956;5.902;2023-07-13T14:30:45;26.10;49.90
38464;DHT22;24243;51.956;5.902;2023-07-13T14:33:12;26.10;49.90
38464;DHT22;24243;51.956;5.902;2023-07-13T14:35:38;26.10;49.80
38464;DHT22;24243;51.956;5.902;2023-07-13T14:38:15;26.10;49.80
38464;DHT22;24243;51.956;5.902;2023-07-13T14:40:42;26.00;49.60
38464;DHT22;24243;51.956;5.902;2023-07-13T14:43:14;26.00;49.50
38464;DHT22;24243;51.956;5.902;2023-07-13T14:45:41;26.00;49.50
38464;DHT22;24243;51.956;5.902;2023-07-13T14:48:13;26.00;49.40
38464;DHT22;24243;51.956;5.902;2023-07-13T14:50:39;26.00;49.40
38464;DHT22;24243;51.956;5.902;2023-07-13T14:53:07;26.00;49.30
38464;DHT22;24243;51.956;5.902;2023-07-13T14:55:34;25.90;49.20
38464;DHT22;24243;51.956;5.902;2023-07-13T14:58:00;25.90;49.10
38464;DHT22;24243;51.956;5.902;2023-07-13T15:00:26;25.90;49.10
38464;DHT22;24243;51.956;5.902;2023-07-13T15:02:53;25.90;49.10
38464;DHT22;24243;51.956;5.902;2023-07-13T15:05:21;25.90;49.00
38464;DHT22;24243;51.956;5.902;2023-07-13T15:07:48;25.90;48.90
38464;DHT22;24243;51.956;5.902;2023-07-13T15:10:22;25.90;48.80
38464;DHT22;24243;51.956;5.902;2023-07-13T15:12:48;25.80;48.70
38464;DHT22;24243;51.956;5.902;2023-07-13T15:15:13;25.80;48.70
38464;DHT22;24243;51.956;5.902;2023-07-13T15:17:40;25.80;48.70
38464;DHT22;24243;51.956;5.902;2023-07-13T15:20:12;25.70;48.70
38464;DHT22;24243;51.956;5.902;2023-07-13T15:22:39;25.80;48.70
38464;DHT22;24243;51.956;5.902;2023-07-13T15:25:07;25.70;49.30
38464;DHT22;24243;51.956;5.902;2023-07-13T15:27:37;25.70;48.70
38464;DHT22;24243;51.956;5.902;2023-07-13T15:30:03;25.70;48.70
38464;DHT22;24243;51.956;5.902;2023-07-13T15:32:29;25.80;48.70
38464;DHT22;24243;51.956;5.902;2023-07-13T15:34:54;25.70;48.60
38464;DHT22;24243;51.956;5.902;2023-07-13T15:37:20;25.70;48.50
38464;DHT22;24243;51.956;5.902;2023-07-13T15:39:46;25.70;48.50
38464;DHT22;24243;51.956;5.902;2023-07-13T15:42:19;25.70;48.50
38464;DHT22;24243;51.956;5.902;2023-07-13T15:44:45;25.70;48.50
38464;DHT22;24243;51.956;5.902;2023-07-13T15:47:11;25.70;48.40
38464;DHT22;24243;51.956;5.902;2023-07-13T15:49:38;25.70;48.40
38464;DHT22;24243;51.956;5.902;2023-07-13T15:52:04;25.60;48.30
38464;DHT22;24243;51.956;5.902;2023-07-13T15:54:31;25.60;48.30
38464;DHT22;24243;51.956;5.902;2023-07-13T15:56:57;25.60;48.30
38464;DHT22;24243;51.956;5.902;2023-07-13T15:59:26;25.60;48.30
38464;DHT22;24243;51.956;5.902;2023-07-13T16:01:51;25.60;48.30
38464;DHT22;24243;51.956;5.902;2023-07-13T16:04:17;25.60;48.30
38464;DHT22;24243;51.956;5.902;2023-07-13T16:06:45;25.50;48.30
38464;DHT22;24243;51.956;5.902;2023-07-13T16:09:19;25.50;48.30